sensor_id;sensor_type;location;lat;lon;timestamp;temperature;humidity
11836;DHT22;5977;51.972;7.640;2024-01-30T00:00:57;18.70;73.00
11836;DHT22;5977;51.972;7.640;2024-01-30T00:03:25;18.70;73.10
11836;DHT22;5977;51.972;7.640;2024-01-30T00:05:53;18.70;73.00
11836;DHT22;5977;51.972;7.640;2024-01-30T00:08:25;18.70;73.00
11836;DHT22;5977;51.972;7.640;2024-01-30T00:10:53;18.70;73.00
11836;DHT22;5977;51.972;7.640;2024-01-30T00:13:21;18.70;73.10
11836;DHT22;5977;51.972;7.640;2024-01-30T00:15:49;18.70;73.00
11836;DHT22;5977;51.972;7.640;2024-01-30T00:18:19;18.70;73.00
11836;DHT22;5977;51.972;7.640;2024-01-30T00:20:47;18.70;73.00
11836;DHT22;5977;51.972;7.640;2024-01-30T00:23:15;18.70;73.00
11836;DHT22;5977;51.972;7.640;2024-01-30T00:25:43;18.70;73.00
11836;DHT22;5977;51.972;7.640;2024-01-30T00:28:11;18.70;73.00
11836;DHT22;5977;51.972;7.640;2024-01-30T00:30:39;18.70;73.10
11836;DHT22;5977;51.972;7.640;2024-01-30T00:33:07;18.70;73.00
11836;DHT22;5977;51.972;7.640;2024-01-30T00:35:37;18.70;73.00
11836;DHT22;5977;51.972;7.640;2024-01-30T00:38:04;18.70;73.00
11836;DHT22;5977;51.972;7.640;2024-01-30T00:40:34;18.70;73.10
11836;DHT22;5977;51.972;7.640;2024-01-30T00:43:02;18.70;73.10
11836;DHT22;5977;51.972;7.640;2024-01-30T00:45:30;18.70;73.10
11836;DHT22;5977;51.972;7.640;2024-01-30T00:47:58;18.70;73.10
11836;DHT22;5977;51.972;7.640;2024-01-30T00:50:26;18.70;73.10
11836;DHT22;5977;51.972;7.640;2024-01-30T00:52:55;18.70;73.10
11836;DHT22;5977;51.972;7.640;2024-01-30T00:55:23;18.70;73.80
11836;DHT22;5977;51.972;7.640;2024-01-30T00:57:51;18.70;73.10
11836;DHT22;5977;51.972;7.640;2024-01-30T01:00:19;18.70;73.10
11836;DHT22;5977;51.972;7.640;2024-01-30T01:02:48;18.70;73.10
11836;DHT22;5977;51.972;7.640;2024-01-30T01:05:16;18.70;73.10
11836;DHT22;5977;51.972;7.640;2024-01-30T01:07:45;18.70;73.10
11836;DHT22;5977;51.972;7.640;2024-01-30T01:10:16;18.70;73.10
11836;DHT22;5977;51.972;7.640;2024-01-30T01:12:45;18.70;73.10
11836;DHT22;5977;51.972;7.640;2024-01-30T01:15:13;18.70;73.10
11836;DHT22;5977;51.972;7.640;2024-01-30T01:17:41;18.70;73.00
11836;DHT22;5977;51.972;7.640;2024-01-30T01:20:09;18.70;73.70
11836;DHT22;5977;51.972;7.640;2024-01-30T01:22:38;18.70;73.00
11836;DHT22;5977;51.972;7.640;2024-01-30T01:25:06;18.70;73.00
11836;DHT22;5977;51.972;7.640;2024-01-30T01:27:36;18.70;73.10
11836;DHT22;5977;51.972;7.640;2024-01-30T01:30:09;18.70;73.00
11836;DHT22;5977;51.972;7.640;2024-01-30T01:32:38;18.60;73.00
11836;DHT22;5977;51.972;7.640;2024-01-30T01:35:12;18.70;73.10
11836;DHT22;5977;51.972;7.640;2024-01-30T01:37:40;18.60;73.10
11836;DHT22;5977;51.972;7.640;2024-01-30T01:40:08;18.70;73.10
11836;DHT22;5977;51.972;7.640;2024-01-30T01:42:38;18.60;73.10
11836;DHT22;5977;51.972;7.640;2024-01-30T01:45:07;18.70;73.20
11836;DHT22;5977;51.972;7.640;2024-01-30T01:47:35;18.60;73.10
11836;DHT22;5977;51.972;7.640;2024-01-30T01:50:04;18.60;73.10
11836;DHT22;5977;51.972;7.640;2024-01-30T01:52:32;18.60;73.10
11836;DHT22;5977;51.972;7.640;2024-01-30T01:55:00;18.60;73.10
11836;DHT22;5977;51.972;7.640;2024-01-30T01:57:28;18.60;73.10
11836;DHT22;5977;51.972;7.640;2024-01-30T01:59:58;18.60;73.10
11836;DHT22;5977;51.972;7.640;2024-01-30T02:02:26;18.60;73.10
11836;DHT22;5977;51.972;7.640;2024-01-30T02:04:57;18.60;73.10
11836;DHT22;5977;51.972;7.640;2024-01-30T02:07:27;18.60;73.10
11836;DHT22;5977;51.972;7.640;2024-01-30T02:09:55;18.60;73.10
11836;DHT22;5977;51.972;7.640;2024-01-30T02:12:24;18.60;73.10
11836;DHT22;5977;51.972;7.640;2024-01-30T02:14:52;18.60;73.10
11836;DHT22;5977;51.972;7.640;2024-01-30T02:17:23;18.60;73.20
11836;DHT22;5977;51.972;7.640;2024-01-30T02:19:52;18.60;73.10
11836;DHT22;5977;51.972;7.640;2024-01-30T02:22:21;18.60;73.10
11836;DHT22;5977;51.972;7.640;2024-01-30T02:24:50;18.60;73.10
11836;DHT22;5977;51.972;7.640;2024-01-30T02:27:18;18.60;73.10
11836;DHT22;5977;51.972;7.640;2024-01-30T02:29:46;18.60;73.20
11836;DHT22;5977;51.972;7.640;2024-01-30T02:32:14;18.60;73.20
11836;DHT22;5977;51.972;7.640;2024-01-30T02:34:42;18.60;73.20
11836;DHT22;5977;51.972;7.640;2024-01-30T02:37:10;18.60;73.20
11836;DHT22;5977;51.972;7.640;2024-01-30T02:39:39;18.60;73.20
11836;DHT22;5977;51.972;7.640;2024-01-30T02:42:07;18.60;73.30
11836;DHT22;5977;51.972;7.640;2024-01-30T02:44:35;18.60;73.30
11836;DHT22;5977;51.972;7.640;2024-01-30T02:47:03;18.60;73.30
11836;DHT22;5977;51.972;7.640;2024-01-30T02:49:31;18.60;73.30
11836;DHT22;5977;51.972;7.640;2024-01-30T02:51:59;18.60;73.30
11836;DHT22;5977;51.972;7.640;2024-01-30T02:54:27;18.60;73.30
11836;DHT22;5977;51.972;7.640;2024-01-30T02:56:58;18.60;73.30
11836;DHT22;5977;51.972;7.640;2024-01-30T02:59:26;18.60;73.30
11836;DHT22;5977;51.972;7.640;2024-01-30T03:01:54;18.60;73.30
11836;DHT22;5977;51.972;7.640;2024-01-30T03:04:22;18.60;73.30
11836;DHT22;5977;51.972;7.640;2024-01-30T03:06:50;18.60;73.30
11836;DHT22;5977;51.972;7.640;2024-01-30T03:09:18;18.60;73.30
11836;DHT22;5977;51.972;7.640;2024-01-30T03:11:46;18.60;73.30
11836;DHT22;5977;51.972;7.640;2024-01-30T03:14:15;18.60;73.30
11836;DHT22;5977;51.972;7.640;2024-01-30T03:16:43;18.60;73.20
11836;DHT22;5977;51.972;7.640;2024-01-30T03:19:11;18.60;73.20
11836;DHT22;5977;51.972;7.640;2024-01-30T03:21:39;18.60;74.00
11836;DHT22;5977;51.972;7.640;2024-01-30T03:24:07;18.50;73.20
11836;DHT22;5977;51.972;7.640;2024-01-30T03:26:35;18.50;73.20
11836;DHT22;5977;51.972;7.640;2024-01-30T03:29:03;18.50;73.20
11836;DHT22;5977;51.972;7.640;2024-01-30T03:31:33;18.50;73.20
11836;DHT22;5977;51.972;7.640;2024-01-30T03:34:00;18.50;73.30
11836;DHT22;5977;51.972;7.640;2024-01-30T03:36:29;18.50;73.20
11836;DHT22;5977;51.972;7.640;2024-01-30T03:38:59;18.60;73.30
11836;DHT22;5977;51.972;7.640;2024-01-30T03:41:27;18.50;73.20
11836;DHT22;5977;51.972;7.640;2024-01-30T03:43:55;18.50;73.20
11836;DHT22;5977;51.972;7.640;2024-01-30T03:46:23;18.50;73.20
11836;DHT22;5977;51.972;7.640;2024-01-30T03:48:52;18.50;73.20
11836;DHT22;5977;51.972;7.640;2024-01-30T03:51:20;18.50;73.20
11836;DHT22;5977;51.972;7.640;2024-01-30T03:53:48;18.50;74.00
11836;DHT22;5977;51.972;7.640;2024-01-30T03:56:16;18.50;73.30
11836;DHT22;5977;51.972;7.640;2024-01-30T03:58:44;18.50;73.20
11836;DHT22;5977;51.972;7.640;2024-01-30T04:01:13;18.50;73.20
11836;DHT22;5977;51.972;7.640;2024-01-30T04:03:41;18.50;73.10
11836;DHT22;5977;51.972;7.640;2024-01-30T04:06:12;18.50;73.00
11836;DHT22;5977;51.972;7.640;2024-01-30T04:08:40;18.50;72.90
11836;DHT22;5977;51.972;7.640;2024-01-30T04:11:08;18.50;73.00
11836;DHT22;5977;51.972;7.640;2024-01-30T04:13:36;18.50;73.10
11836;DHT22;5977;51.972;7.640;2024-01-30T04:16:04;18.50;73.00
11836;DHT22;5977;51.972;7.640;2024-01-30T04:18:32;18.50;72.90
11836;DHT22;5977;51.972;7.640;2024-01-30T04:21:00;18.50;72.90
11836;DHT22;5977;51.972;7.640;2024-01-30T04:23:30;18.50;73.10
11836;DHT22;5977;51.972;7.640;2024-01-30T04:25:57;18.50;73.20
11836;DHT22;5977;51.972;7.640;2024-01-30T04:28:25;18.50;73.20
11836;DHT22;5977;51.972;7.640;2024-01-30T04:30:53;18.50;73.20
11836;DHT22;5977;51.972;7.640;2024-01-30T04:33:21;18.50;73.20
11836;DHT22;5977;51.972;7.640;2024-01-30T04:35:49;18.50;73.20
11836;DHT22;5977;51.972;7.640;2024-01-30T04:38:18;18.50;73.30
11836;DHT22;5977;51.972;7.640;2024-01-30T04:40:47;18.50;73.40
11836;DHT22;5977;51.972;7.640;2024-01-30T04:43:15;18.50;73.40
11836;DHT22;5977;51.972;7.640;2024-01-30T04:45:43;18.50;73.50
11836;DHT22;5977;51.972;7.640;2024-01-30T04:48:11;18.50;73.50
11836;DHT22;5977;51.972;7.640;2024-01-30T04:50:39;18.50;73.50
11836;DHT22;5977;51.972;7.640;2024-01-30T04:53:07;18.50;73.50
11836;DHT22;5977;51.972;7.640;2024-01-30T04:55:35;18.50;73.50
11836;DHT22;5977;51.972;7.640;2024-01-30T04:58:05;18.50;73.40
11836;DHT22;5977;51.972;7.640;2024-01-30T05:00:33;18.50;73.40
11836;DHT22;5977;51.972;7.640;2024-01-30T05:03:01;18.50;73.30
11836;DHT22;5977;51.972;7.640;2024-01-30T05:05:29;18.50;73.40
11836;DHT22;5977;51.972;7.640;2024-01-30T05:07:57;18.50;73.40
11836;DHT22;5977;51.972;7.640;2024-01-30T05:10:27;18.50;73.50
11836;DHT22;5977;51.972;7.640;2024-01-30T05:12:56;18.50;73.50
11836;DHT22;5977;51.972;7.640;2024-01-30T05:15:25;18.50;73.50
11836;DHT22;5977;51.972;7.640;2024-01-30T05:17:53;18.50;73.50
11836;DHT22;5977;51.972;7.640;2024-01-30T05:20:21;18.50;73.50
11836;DHT22;5977;51.972;7.640;2024-01-30T05:22:49;18.50;73.50
11836;DHT22;5977;51.972;7.640;2024-01-30T05:25:17;18.50;73.50
11836;DHT22;5977;51.972;7.640;2024-01-30T05:27:45;18.50;73.50
11836;DHT22;5977;51.972;7.640;2024-01-30T05:30:14;18.50;73.60
11836;DHT22;5977;51.972;7.640;2024-01-30T05:32:43;18.50;73.60
11836;DHT22;5977;51.972;7.640;2024-01-30T05:35:11;18.50;73.50
11836;DHT22;5977;51.972;7.640;2024-01-30T05:37:39;18.50;73.50
11836;DHT22;5977;51.972;7.640;2024-01-30T05:40:07;18.50;73.60
11836;DHT22;5977;51.972;7.640;2024-01-30T05:42:36;18.50;73.60
11836;DHT22;5977;51.972;7.640;2024-01-30T05:45:05;18.50;73.50
11836;DHT22;5977;51.972;7.640;2024-01-30T05:47:33;18.50;73.60
11836;DHT22;5977;51.972;7.640;2024-01-30T05:50:02;18.50;73.60
11836;DHT22;5977;51.972;7.640;2024-01-30T05:52:31;18.50;73.60
11836;DHT22;5977;51.972;7.640;2024-01-30T05:54:59;18.50;73.60
11836;DHT22;5977;51.972;7.640;2024-01-30T05:57:27;18.50;73.60
11836;DHT22;5977;51.972;7.640;2024-01-30T05:59:55;18.50;73.60
11836;DHT22;5977;51.972;7.640;2024-01-30T06:02:22;18.50;73.60
11836;DHT22;5977;51.972;7.640;2024-01-30T06:04:50;18.50;73.60
11836;DHT22;5977;51.972;7.640;2024-01-30T06:07:20;18.50;73.60
11836;DHT22;5977;51.972;7.640;2024-01-30T06:09:48;18.50;73.60
11836;DHT22;5977;51.972;7.640;2024-01-30T06:12:17;18.50;73.60
11836;DHT22;5977;51.972;7.640;2024-01-30T06:14:44;18.50;73.60
11836;DHT22;5977;51.972;7.640;2024-01-30T06:17:13;18.60;73.50
11836;DHT22;5977;51.972;7.640;2024-01-30T06:19:41;18.60;73.40
11836;DHT22;5977;51.972;7.640;2024-01-30T06:22:09;18.60;73.40
11836;DHT22;5977;51.972;7.640;2024-01-30T06:24:39;18.60;73.30
11836;DHT22;5977;51.972;7.640;2024-01-30T06:27:07;18.60;73.30
11836;DHT22;5977;51.972;7.640;2024-01-30T06:29:36;18.60;73.30
11836;DHT22;5977;51.972;7.640;2024-01-30T06:32:05;18.60;73.30
11836;DHT22;5977;51.972;7.640;2024-01-30T06:34:33;18.60;73.40
11836;DHT22;5977;51.972;7.640;2024-01-30T06:37:01;18.60;73.30
11836;DHT22;5977;51.972;7.640;2024-01-30T06:39:29;18.60;73.30
11836;DHT22;5977;51.972;7.640;2024-01-30T06:41:58;18.60;73.30
11836;DHT22;5977;51.972;7.640;2024-01-30T06:44:26;18.60;73.30
11836;DHT22;5977;51.972;7.640;2024-01-30T06:46:58;18.60;73.30
11836;DHT22;5977;51.972;7.640;2024-01-30T06:49:26;18.60;74.10
11836;DHT22;5977;51.972;7.640;2024-01-30T06:51:54;18.60;73.30
11836;DHT22;5977;51.972;7.640;2024-01-30T06:54:22;18.60;73.30
11836;DHT22;5977;51.972;7.640;2024-01-30T06:56:50;18.60;73.30
11836;DHT22;5977;51.972;7.640;2024-01-30T06:59:19;18.60;73.30
11836;DHT22;5977;51.972;7.640;2024-01-30T07:01:47;18.60;73.30
11836;DHT22;5977;51.972;7.640;2024-01-30T07:04:15;18.60;73.30
11836;DHT22;5977;51.972;7.640;2024-01-30T07:06:44;18.60;73.30
11836;DHT22;5977;51.972;7.640;2024-01-30T07:09:12;18.60;73.30
11836;DHT22;5977;51.972;7.640;2024-01-30T07:11:41;18.50;73.30
11836;DHT22;5977;51.972;7.640;2024-01-30T07:14:09;18.60;73.40
11836;DHT22;5977;51.972;7.640;2024-01-30T07:16:38;18.50;73.30
11836;DHT22;5977;51.972;7.640;2024-01-30T07:19:06;18.50;73.30
11836;DHT22;5977;51.972;7.640;2024-01-30T07:21:36;18.50;73.50
11836;DHT22;5977;51.972;7.640;2024-01-30T07:24:05;18.50;73.40
11836;DHT22;5977;51.972;7.640;2024-01-30T07:26:33;18.50;73.50
11836;DHT22;5977;51.972;7.640;2024-01-30T07:29:02;18.50;73.50
11836;DHT22;5977;51.972;7.640;2024-01-30T07:31:30;18.50;73.50
11836;DHT22;5977;51.972;7.640;2024-01-30T07:34:01;18.50;73.50
11836;DHT22;5977;51.972;7.640;2024-01-30T07:36:30;18.50;73.50
11836;DHT22;5977;51.972;7.640;2024-01-30T07:38:58;18.50;73.60
11836;DHT22;5977;51.972;7.640;2024-01-30T07:41:26;18.50;73.60
11836;DHT22;5977;51.972;7.640;2024-01-30T07:43:54;18.50;73.60
11836;DHT22;5977;51.972;7.640;2024-01-30T07:46:21;18.50;73.60
11836;DHT22;5977;51.972;7.640;2024-01-30T07:48:49;18.50;73.60
11836;DHT22;5977;51.972;7.640;2024-01-30T07:51:22;18.50;73.50
11836;DHT22;5977;51.972;7.640;2024-01-30T07:53:49;18.50;73.50
11836;DHT22;5977;51.972;7.640;2024-01-30T07:56:17;18.50;73.50
11836;DHT22;5977;51.972;7.640;2024-01-30T07:58:45;18.50;73.50
11836;DHT22;5977;51.972;7.640;2024-01-30T08:01:14;18.50;73.50
11836;DHT22;5977;51.972;7.640;2024-01-30T08:03:43;18.50;73.50
11836;DHT22;5977;51.972;7.640;2024-01-30T08:06:11;18.50;73.40
11836;DHT22;5977;51.972;7.640;2024-01-30T08:08:40;18.60;73.40
11836;DHT22;5977;51.972;7.640;2024-01-30T08:11:08;18.60;73.40
11836;DHT22;5977;51.972;7.640;2024-01-30T08:13:36;18.60;73.30
11836;DHT22;5977;51.972;7.640;2024-01-30T08:16:04;18.60;73.30
11836;DHT22;5977;51.972;7.640;2024-01-30T08:18:32;18.60;73.30
11836;DHT22;5977;51.972;7.640;2024-01-30T08:21:00;18.60;73.30
11836;DHT22;5977;51.972;7.640;2024-01-30T08:23:28;18.60;73.30
11836;DHT22;5977;51.972;7.640;2024-01-30T08:25:57;18.60;73.20
11836;DHT22;5977;51.972;7.640;2024-01-30T08:28:25;18.60;73.20
11836;DHT22;5977;51.972;7.640;2024-01-30T08:30:54;18.60;73.20
11836;DHT22;5977;51.972;7.640;2024-01-30T08:33:22;18.60;73.20
11836;DHT22;5977;51.972;7.640;2024-01-30T08:35:50;18.60;73.20
11836;DHT22;5977;51.972;7.640;2024-01-30T08:38:18;18.60;73.10
11836;DHT22;5977;51.972;7.640;2024-01-30T08:40:46;18.70;73.20
11836;DHT22;5977;51.972;7.640;2024-01-30T08:43:15;18.60;73.10
11836;DHT22;5977;51.972;7.640;2024-01-30T08:45:43;18.70;73.10
11836;DHT22;5977;51.972;7.640;2024-01-30T08:48:11;18.70;73.00
11836;DHT22;5977;51.972;7.640;2024-01-30T08:50:39;18.70;73.00
11836;DHT22;5977;51.972;7.640;2024-01-30T08:53:07;18.70;72.90
11836;DHT22;5977;51.972;7.640;2024-01-30T08:55:35;18.70;72.90
11836;DHT22;5977;51.972;7.640;2024-01-30T08:58:03;18.70;72.80
11836;DHT22;5977;51.972;7.640;2024-01-30T09:00:33;18.80;72.90
11836;DHT22;5977;51.972;7.640;2024-01-30T09:03:01;18.70;72.90
11836;DHT22;5977;51.972;7.640;2024-01-30T09:05:29;18.80;73.00
11836;DHT22;5977;51.972;7.640;2024-01-30T09:07:57;18.80;73.10
11836;DHT22;5977;51.972;7.640;2024-01-30T09:10:25;18.70;72.90
11836;DHT22;5977;51.972;7.640;2024-01-30T09:12:53;18.80;73.10
11836;DHT22;5977;51.972;7.640;2024-01-30T09:15:22;18.80;73.10
11836;DHT22;5977;51.972;7.640;2024-01-30T09:17:53;18.80;73.00
11836;DHT22;5977;51.972;7.640;2024-01-30T09:20:21;18.80;73.00
11836;DHT22;5977;51.972;7.640;2024-01-30T09:22:49;18.80;73.00
11836;DHT22;5977;51.972;7.640;2024-01-30T09:25:17;18.80;73.00
11836;DHT22;5977;51.972;7.640;2024-01-30T09:27:46;18.70;73.00
11836;DHT22;5977;51.972;7.640;2024-01-30T09:30:14;18.80;73.10
11836;DHT22;5977;51.972;7.640;2024-01-30T09:32:43;18.80;73.10
11836;DHT22;5977;51.972;7.640;2024-01-30T09:35:12;18.70;73.10
11836;DHT22;5977;51.972;7.640;2024-01-30T09:37:40;18.70;73.20
11836;DHT22;5977;51.972;7.640;2024-01-30T09:40:09;18.80;73.20
11836;DHT22;5977;51.972;7.640;2024-01-30T09:42:37;18.80;73.20
11836;DHT22;5977;51.972;7.640;2024-01-30T09:45:06;18.80;73.50
11836;DHT22;5977;51.972;7.640;2024-01-30T09:47:38;18.80;73.20
11836;DHT22;5977;51.972;7.640;2024-01-30T09:50:08;18.70;73.10
11836;DHT22;5977;51.972;7.640;2024-01-30T09:52:38;18.70;73.20
11836;DHT22;5977;51.972;7.640;2024-01-30T09:55:07;18.80;73.30
11836;DHT22;5977;51.972;7.640;2024-01-30T09:57:35;18.70;73.50
11836;DHT22;5977;51.972;7.640;2024-01-30T10:00:04;18.80;73.10
11836;DHT22;5977;51.972;7.640;2024-01-30T10:02:40;18.80;73.00
11836;DHT22;5977;51.972;7.640;2024-01-30T10:05:09;18.80;73.00
11836;DHT22;5977;51.972;7.640;2024-01-30T10:07:38;18.70;72.90
11836;DHT22;5977;51.972;7.640;2024-01-30T10:10:06;18.70;72.90
11836;DHT22;5977;51.972;7.640;2024-01-30T10:12:35;18.70;73.10
11836;DHT22;5977;51.972;7.640;2024-01-30T10:15:06;18.70;73.10
11836;DHT22;5977;51.972;7.640;2024-01-30T10:17:37;18.70;73.10
11836;DHT22;5977;51.972;7.640;2024-01-30T10:20:06;18.70;73.20
11836;DHT22;5977;51.972;7.640;2024-01-30T10:22:34;18.70;73.20
11836;DHT22;5977;51.972;7.640;2024-01-30T10:25:05;18.70;73.40
11836;DHT22;5977;51.972;7.640;2024-01-30T10:27:34;18.70;73.20
11836;DHT22;5977;51.972;7.640;2024-01-30T10:30:02;18.70;73.20
11836;DHT22;5977;51.972;7.640;2024-01-30T10:32:31;18.70;73.20
11836;DHT22;5977;51.972;7.640;2024-01-30T10:34:59;18.70;73.20
11836;DHT22;5977;51.972;7.640;2024-01-30T10:37:29;18.70;73.20
11836;DHT22;5977;51.972;7.640;2024-01-30T10:40:04;18.70;73.20
11836;DHT22;5977;51.972;7.640;2024-01-30T10:42:33;18.70;73.10
11836;DHT22;5977;51.972;7.640;2024-01-30T10:45:07;18.70;73.20
11836;DHT22;5977;51.972;7.640;2024-01-30T10:47:36;18.70;73.10
11836;DHT22;5977;51.972;7.640;2024-01-30T10:50:05;18.70;73.10
11836;DHT22;5977;51.972;7.640;2024-01-30T10:52:36;18.70;73.00
11836;DHT22;5977;51.972;7.640;2024-01-30T10:55:07;18.70;72.90
11836;DHT22;5977;51.972;7.640;2024-01-30T10:57:35;18.80;73.00
11836;DHT22;5977;51.972;7.640;2024-01-30T11:00:06;18.80;73.00
11836;DHT22;5977;51.972;7.640;2024-01-30T11:02:38;18.80;72.90
11836;DHT22;5977;51.972;7.640;2024-01-30T11:05:07;18.80;72.80
11836;DHT22;5977;51.972;7.640;2024-01-30T11:07:35;18.80;72.80
11836;DHT22;5977;51.972;7.640;2024-01-30T11:10:06;18.90;72.70
11836;DHT22;5977;51.972;7.640;2024-01-30T11:12:39;18.90;72.70
11836;DHT22;5977;51.972;7.640;2024-01-30T11:15:13;19.10;72.50
11836;DHT22;5977;51.972;7.640;2024-01-30T11:17:45;19.30;72.00
11836;DHT22;5977;51.972;7.640;2024-01-30T11:20:20;19.40;71.50
11836;DHT22;5977;51.972;7.640;2024-01-30T11:22:50;19.50;71.30
11836;DHT22;5977;51.972;7.640;2024-01-30T11:25:21;19.50;71.10
11836;DHT22;5977;51.972;7.640;2024-01-30T11:27:50;19.50;71.10
11836;DHT22;5977;51.972;7.640;2024-01-30T11:30:23;19.60;71.00
11836;DHT22;5977;51.972;7.640;2024-01-30T11:33:02;19.60;71.00
11836;DHT22;5977;51.972;7.640;2024-01-30T11:35:34;19.60;70.80
11836;DHT22;5977;51.972;7.640;2024-01-30T11:38:03;19.60;70.80
11836;DHT22;5977;51.972;7.640;2024-01-30T11:40:33;19.40;71.00
11836;DHT22;5977;51.972;7.640;2024-01-30T11:43:02;19.40;71.40
11836;DHT22;5977;51.972;7.640;2024-01-30T11:45:32;19.30;71.60
11836;DHT22;5977;51.972;7.640;2024-01-30T11:48:00;19.30;71.80
11836;DHT22;5977;51.972;7.640;2024-01-30T11:50:31;19.30;71.70
11836;DHT22;5977;51.972;7.640;2024-01-30T11:53:00;19.30;71.70
11836;DHT22;5977;51.972;7.640;2024-01-30T11:55:29;19.30;71.70
11836;DHT22;5977;51.972;7.640;2024-01-30T11:58:02;19.30;71.90
11836;DHT22;5977;51.972;7.640;2024-01-30T12:00:31;19.30;71.90
11836;DHT22;5977;51.972;7.640;2024-01-30T12:03:00;19.30;72.00
11836;DHT22;5977;51.972;7.640;2024-01-30T12:05:29;19.30;72.20
11836;DHT22;5977;51.972;7.640;2024-01-30T12:07:57;19.20;72.30
11836;DHT22;5977;51.972;7.640;2024-01-30T12:10:27;19.20;72.60
11836;DHT22;5977;51.972;7.640;2024-01-30T12:12:56;19.20;72.70
11836;DHT22;5977;51.972;7.640;2024-01-30T12:15:27;19.20;72.80
11836;DHT22;5977;51.972;7.640;2024-01-30T12:18:04;19.10;72.90
11836;DHT22;5977;51.972;7.640;2024-01-30T12:20:32;19.10;73.00
11836;DHT22;5977;51.972;7.640;2024-01-30T12:23:00;19.10;73.10
11836;DHT22;5977;51.972;7.640;2024-01-30T12:25:29;19.10;73.10
11836;DHT22;5977;51.972;7.640;2024-01-30T12:27:57;19.10;73.20
11836;DHT22;5977;51.972;7.640;2024-01-30T12:30:27;19.10;73.20
11836;DHT22;5977;51.972;7.640;2024-01-30T12:32:56;19.10;73.10
11836;DHT22;5977;51.972;7.640;2024-01-30T12:35:24;19.10;73.10
11836;DHT22;5977;51.972;7.640;2024-01-30T12:37:55;19.10;73.10
11836;DHT22;5977;51.972;7.640;2024-01-30T12:40:23;19.10;73.10
11836;DHT22;5977;51.972;7.640;2024-01-30T12:42:53;19.10;73.20
11836;DHT22;5977;51.972;7.640;2024-01-30T12:45:21;19.10;73.20
11836;DHT22;5977;51.972;7.640;2024-01-30T12:47:51;19.00;73.10
11836;DHT22;5977;51.972;7.640;2024-01-30T12:50:19;19.00;73.20
11836;DHT22;5977;51.972;7.640;2024-01-30T12:52:47;19.00;73.30
11836;DHT22;5977;51.972;7.640;2024-01-30T12:55:16;19.00;73.30
11836;DHT22;5977;51.972;7.640;2024-01-30T12:57:45;19.00;73.30
11836;DHT22;5977;51.972;7.640;2024-01-30T13:00:13;18.90;73.30
11836;DHT22;5977;51.972;7.640;2024-01-30T13:02:43;19.00;73.50
11836;DHT22;5977;51.972;7.640;2024-01-30T13:05:13;19.00;73.60
11836;DHT22;5977;51.972;7.640;2024-01-30T13:07:41;19.00;73.80
11836;DHT22;5977;51.972;7.640;2024-01-30T13:10:09;18.90;73.60
11836;DHT22;5977;51.972;7.640;2024-01-30T13:12:37;19.00;73.70
11836;DHT22;5977;51.972;7.640;2024-01-30T13:15:06;18.90;73.60
11836;DHT22;5977;51.972;7.640;2024-01-30T13:17:34;19.00;73.60
11836;DHT22;5977;51.972;7.640;2024-01-30T13:20:03;19.00;73.60
11836;DHT22;5977;51.972;7.640;2024-01-30T13:22:39;19.00;73.40
11836;DHT22;5977;51.972;7.640;2024-01-30T13:25:07;19.00;73.40
11836;DHT22;5977;51.972;7.640;2024-01-30T13:27:36;19.00;73.40
11836;DHT22;5977;51.972;7.640;2024-01-30T13:30:07;19.00;73.40
11836;DHT22;5977;51.972;7.640;2024-01-30T13:32:36;19.00;73.50
11836;DHT22;5977;51.972;7.640;2024-01-30T13:35:05;19.00;73.50
11836;DHT22;5977;51.972;7.640;2024-01-30T13:37:33;19.00;74.30
11836;DHT22;5977;51.972;7.640;2024-01-30T13:40:04;19.00;73.50
11836;DHT22;5977;51.972;7.640;2024-01-30T13:42:37;19.00;73.50
11836;DHT22;5977;51.972;7.640;2024-01-30T13:45:05;19.00;73.60
11836;DHT22;5977;51.972;7.640;2024-01-30T13:47:36;19.00;73.60
11836;DHT22;5977;51.972;7.640;2024-01-30T13:50:04;19.00;73.70
11836;DHT22;5977;51.972;7.640;2024-01-30T13:52:33;18.90;73.70
11836;DHT22;5977;51.972;7.640;2024-01-30T13:55:12;18.90;73.70
11836;DHT22;5977;51.972;7.640;2024-01-30T13:57:40;18.90;73.70
11836;DHT22;5977;51.972;7.640;2024-01-30T14:00:09;18.90;73.70
11836;DHT22;5977;51.972;7.640;2024-01-30T14:02:40;18.90;73.70
11836;DHT22;5977;51.972;7.640;2024-01-30T14:05:08;18.90;73.80
11836;DHT22;5977;51.972;7.640;2024-01-30T14:07:37;18.90;73.80
11836;DHT22;5977;51.972;7.640;2024-01-30T14:10:07;18.90;73.90
11836;DHT22;5977;51.972;7.640;2024-01-30T14:12:42;18.80;73.80
11836;DHT22;5977;51.972;7.640;2024-01-30T14:15:10;18.90;73.90
11836;DHT22;5977;51.972;7.640;2024-01-30T14:17:53;18.90;73.80
11836;DHT22;5977;51.972;7.640;2024-01-30T14:20:21;18.90;73.70
11836;DHT22;5977;51.972;7.640;2024-01-30T14:22:49;19.00;73.60
11836;DHT22;5977;51.972;7.640;2024-01-30T14:25:18;19.00;73.40
11836;DHT22;5977;51.972;7.640;2024-01-30T14:27:47;19.00;73.30
11836;DHT22;5977;51.972;7.640;2024-01-30T14:30:16;19.00;73.10
11836;DHT22;5977;51.972;7.640;2024-01-30T14:32:44;19.00;73.00
11836;DHT22;5977;51.972;7.640;2024-01-30T14:35:13;19.10;73.00
11836;DHT22;5977;51.972;7.640;2024-01-30T14:37:41;19.10;72.90
11836;DHT22;5977;51.972;7.640;2024-01-30T14:40:09;19.10;72.80
11836;DHT22;5977;51.972;7.640;2024-01-30T14:42:37;19.10;72.80
11836;DHT22;5977;51.972;7.640;2024-01-30T14:45:07;19.00;72.70
11836;DHT22;5977;51.972;7.640;2024-01-30T14:47:36;19.00;72.70
11836;DHT22;5977;51.972;7.640;2024-01-30T14:50:05;19.00;72.70
11836;DHT22;5977;51.972;7.640;2024-01-30T14:52:35;19.10;72.70
11836;DHT22;5977;51.972;7.640;2024-01-30T14:55:05;19.10;72.70
11836;DHT22;5977;51.972;7.640;2024-01-30T14:57:33;19.10;72.60
11836;DHT22;5977;51.972;7.640;2024-01-30T15:00:03;19.10;72.50
11836;DHT22;5977;51.972;7.640;2024-01-30T15:02:32;19.10;72.50
11836;DHT22;5977;51.972;7.640;2024-01-30T15:05:00;19.10;72.40
11836;DHT22;5977;51.972;7.640;2024-01-30T15:07:29;19.10;72.40
11836;DHT22;5977;51.972;7.640;2024-01-30T15:10:06;19.10;72.30
11836;DHT22;5977;51.972;7.640;2024-01-30T15:12:35;19.10;72.30
11836;DHT22;5977;51.972;7.640;2024-01-30T15:15:04;19.10;72.20
11836;DHT22;5977;51.972;7.640;2024-01-30T15:17:34;19.10;72.20
11836;DHT22;5977;51.972;7.640;2024-01-30T15:20:02;19.10;72.20
11836;DHT22;5977;51.972;7.640;2024-01-30T15:22:31;19.10;72.20
11836;DHT22;5977;51.972;7.640;2024-01-30T15:24:59;19.10;72.20
11836;DHT22;5977;51.972;7.640;2024-01-30T15:27:27;19.10;72.20
11836;DHT22;5977;51.972;7.640;2024-01-30T15:29:56;19.10;72.20
11836;DHT22;5977;51.972;7.640;2024-01-30T15:32:24;19.00;72.20
11836;DHT22;5977;51.972;7.640;2024-01-30T15:34:54;19.00;72.20
11836;DHT22;5977;51.972;7.640;2024-01-30T15:37:23;19.00;72.30
11836;DHT22;5977;51.972;7.640;2024-01-30T15:39:51;19.00;72.20
11836;DHT22;5977;51.972;7.640;2024-01-30T15:42:19;19.00;72.30
11836;DHT22;5977;51.972;7.640;2024-01-30T15:44:47;19.00;72.20
11836;DHT22;5977;51.972;7.640;2024-01-30T15:47:16;19.00;72.20
11836;DHT22;5977;51.972;7.640;2024-01-30T15:49:44;19.00;72.20
11836;DHT22;5977;51.972;7.640;2024-01-30T15:52:14;19.00;72.30
11836;DHT22;5977;51.972;7.640;2024-01-30T15:54:45;19.00;72.30